sensor_id;sensor_type;location;lat;lon;timestamp;pressure;altitude;pressure_sealevel;temperature;humidity
60319;BME280;46163;52.306;5.634;2023-02-04T00:00:47;103098.13;;;16.86;55.32
60319;BME280;46163;52.306;5.634;2023-02-04T00:03:14;103096.63;;;16.83;55.10
60319;BME280;46163;52.306;5.634;2023-02-04T00:05:40;103096.63;;;16.83;55.10
60319;BME280;46163;52.306;5.634;2023-02-04T00:08:06;103090.41;;;16.83;55.32
60319;BME280;46163;52.306;5.634;2023-02-04T00:10:32;103089.78;;;16.81;54.99
60319;BME280;46163;52.306;5.634;2023-02-04T00:12:57;103084.59;;;16.79;55.22
60319;BME280;46163;52.306;5.634;2023-02-04T00:15:23;103082.94;;;16.78;55.30
60319;BME280;46163;52.306;5.634;2023-02-04T00:17:49;103085.97;;;16.75;55.20
60319;BME280;46163;52.306;5.634;2023-02-04T00:20:14;103090.91;;;16.72;55.20
60319;BME280;46163;52.306;5.634;2023-02-04T00:22:43;103101.03;;;16.70;55.42
60319;BME280;46163;52.306;5.634;2023-02-04T00:25:09;103101.66;;;16.72;55.28
60319;BME280;46163;52.306;5.634;2023-02-04T00:27:35;103106.41;;;16.70;55.21
60319;BME280;46163;52.306;5.634;2023-02-04T00:30:03;103106.72;;;16.66;55.23
60319;BME280;46163;52.306;5.634;2023-02-04T00:32:29;103101.72;;;16.63;55.37
60319;BME280;46163;52.306;5.634;2023-02-04T00:34:54;103110.63;;;16.64;55.03
60319;BME280;46163;52.306;5.634;2023-02-04T00:37:21;103113.50;;;16.62;55.16
60319;BME280;46163;52.306;5.634;2023-02-04T00:39:46;103111.00;;;16.61;55.13
60319;BME280;46163;52.306;5.634;2023-02-04T00:42:12;103109.50;;;16.58;55.17
60319;BME280;46163;52.306;5.634;2023-02-04T00:44:37;103100.69;;;16.50;54.84
60319;BME280;46163;52.306;5.634;2023-02-04T00:47:03;103109.88;;;16.55;55.04
60319;BME280;46163;52.306;5.634;2023-02-04T00:49:29;103095.69;;;16.47;55.09
60319;BME280;46163;52.306;5.634;2023-02-04T00:51:54;103118.50;;;16.51;54.86
60319;BME280;46163;52.306;5.634;2023-02-04T00:54:20;103118.50;;;16.51;55.15
60319;BME280;46163;52.306;5.634;2023-02-04T00:56:46;103119.34;;;16.51;55.08
60319;BME280;46163;52.306;5.634;2023-02-04T00:59:11;103124.03;;;16.49;55.07
60319;BME280;46163;52.306;5.634;2023-02-04T01:01:37;103117.84;;;16.49;55.10
60319;BME280;46163;52.306;5.634;2023-02-04T01:04:02;103121.75;;;16.46;55.00
60319;BME280;46163;52.306;5.634;2023-02-04T01:06:28;103124.63;;;16.45;54.93
60319;BME280;46163;52.306;5.634;2023-02-04T01:08:53;103122.94;;;16.44;54.90
60319;BME280;46163;52.306;5.634;2023-02-04T01:11:19;103132.88;;;16.43;54.90
60319;BME280;46163;52.306;5.634;2023-02-04T01:13:45;103132.38;;;16.39;54.95
60319;BME280;46163;52.306;5.634;2023-02-04T01:16:11;103136.09;;;16.38;54.92
60319;BME280;46163;52.306;5.634;2023-02-04T01:18:37;103146.00;;;16.38;54.88
60319;BME280;46163;52.306;5.634;2023-02-04T01:21:03;103147.22;;;16.35;54.94
60319;BME280;46163;52.306;5.634;2023-02-04T01:23:29;103149.91;;;16.35;54.98
60319;BME280;46163;52.306;5.634;2023-02-04T01:25:55;103156.31;;;16.34;54.97
60319;BME280;46163;52.306;5.634;2023-02-04T01:28:22;103154.78;;;16.32;54.97
60319;BME280;46163;52.306;5.634;2023-02-04T01:30:47;103152.28;;;16.30;54.71
60319;BME280;46163;52.306;5.634;2023-02-04T01:33:13;103158.69;;;16.29;54.97
60319;BME280;46163;52.306;5.634;2023-02-04T01:35:40;103153.50;;;16.28;54.88
60319;BME280;46163;52.306;5.634;2023-02-04T01:38:05;103167.13;;;16.26;54.91
60319;BME280;46163;52.306;5.634;2023-02-04T01:40:31;103172.69;;;16.25;54.89
60319;BME280;46163;52.306;5.634;2023-02-04T01:42:56;103179.03;;;16.24;54.90
60319;BME280;46163;52.306;5.634;2023-02-04T01:45:22;103180.06;;;16.23;54.78
60319;BME280;46163;52.306;5.634;2023-02-04T01:47:49;103182.09;;;16.21;54.96
60319;BME280;46163;52.306;5.634;2023-02-04T01:50:16;103184.97;;;16.19;54.99
60319;BME280;46163;52.306;5.634;2023-02-04T01:52:43;103180.63;;;16.18;54.97
60319;BME280;46163;52.306;5.634;2023-02-04T01:55:19;103186.19;;;16.17;54.95
60319;BME280;46163;52.306;5.634;2023-02-04T01:57:46;103186.34;;;16.15;54.89
60319;BME280;46163;52.306;5.634;2023-02-04T02:00:25;103183.00;;;16.13;54.91
60319;BME280;46163;52.306;5.634;2023-02-04T02:02:51;103201.81;;;16.13;55.06
60319;BME280;46163;52.306;5.634;2023-02-04T02:05:45;103203.84;;;16.11;54.93
60319;BME280;46163;52.306;5.634;2023-02-04T02:08:13;103204.69;;;16.11;54.80
60319;BME280;46163;52.306;5.634;2023-02-04T02:10:43;103195.97;;;16.09;54.90
60319;BME280;46163;52.306;5.634;2023-02-04T02:13:11;103197.00;;;16.08;55.00
60319;BME280;46163;52.306;5.634;2023-02-04T02:15:38;103200.69;;;16.07;54.79
60319;BME280;46163;52.306;5.634;2023-02-04T02:18:04;103206.22;;;16.06;55.02
60319;BME280;46163;52.306;5.634;2023-02-04T02:20:29;103202.72;;;16.05;54.92
60319;BME280;46163;52.306;5.634;2023-02-04T02:25:49;103203.06;;;16.02;55.00
60319;BME280;46163;52.306;5.634;2023-02-04T02:28:18;103209.47;;;16.01;54.80
60319;BME280;46163;52.306;5.634;2023-02-04T02:30:44;103198.91;;;16.00;54.90
60319;BME280;46163;52.306;5.634;2023-02-04T02:33:14;103201.59;;;16.00;54.97
60319;BME280;46163;52.306;5.634;2023-02-04T02:35:42;103203.59;;;15.98;55.01
60319;BME280;46163;52.306;5.634;2023-02-04T02:38:14;103206.28;;;15.98;54.79
60319;BME280;46163;52.306;5.634;2023-02-04T02:40:42;103197.09;;;15.92;54.95
60319;BME280;46163;52.306;5.634;2023-02-04T02:43:11;103196.94;;;15.94;54.91
60319;BME280;46163;52.306;5.634;2023-02-04T02:45:38;103198.97;;;15.92;54.98
60319;BME280;46163;52.306;5.634;2023-02-04T02:48:04;103202.66;;;15.91;54.93
60319;BME280;46163;52.306;5.634;2023-02-04T02:50:31;103206.34;;;15.90;54.99
60319;BME280;46163;52.306;5.634;2023-02-04T02:52:57;103198.47;;;15.88;54.95
60319;BME280;46163;52.306;5.634;2023-02-04T02:55:26;103203.00;;;15.88;54.92
60319;BME280;46163;52.306;5.634;2023-02-04T02:57:53;103207.72;;;15.86;54.92
60319;BME280;46163;52.306;5.634;2023-02-04T03:00:27;103208.75;;;15.85;54.67
60319;BME280;46163;52.306;5.634;2023-02-04T03:03:17;103216.97;;;15.83;54.81
60319;BME280;46163;52.306;5.634;2023-02-04T03:05:45;103216.16;;;15.82;54.91
60319;BME280;46163;52.306;5.634;2023-02-04T03:08:13;103215.66;;;15.79;55.01
60319;BME280;46163;52.306;5.634;2023-02-04T03:10:40;103226.19;;;15.80;54.99
60319;BME280;46163;52.306;5.634;2023-02-04T03:13:06;103227.22;;;15.79;54.96
60319;BME280;46163;52.306;5.634;2023-02-04T03:15:33;103230.09;;;15.78;54.90
60319;BME280;46163;52.306;5.634;2023-02-04T03:17:59;103231.09;;;15.77;55.03
60319;BME280;46163;52.306;5.634;2023-02-04T03:20:27;103225.91;;;15.75;54.96
60319;BME280;46163;52.306;5.634;2023-02-04T03:22:54;103223.41;;;15.74;54.86
60319;BME280;46163;52.306;5.634;2023-02-04T03:25:21;103228.94;;;15.72;54.87
60319;BME280;46163;52.306;5.634;2023-02-04T03:27:51;103221.06;;;15.71;54.79
60319;BME280;46163;52.306;5.634;2023-02-04T03:30:37;103226.63;;;15.69;54.76
60319;BME280;46163;52.306;5.634;2023-02-04T03:33:09;103224.28;;;15.66;54.88
60319;BME280;46163;52.306;5.634;2023-02-04T03:35:35;103234.00;;;15.67;54.89
60319;BME280;46163;52.306;5.634;2023-02-04T03:38:00;103230.69;;;15.65;54.75
60319;BME280;46163;52.306;5.634;2023-02-04T03:40:27;103236.38;;;15.62;54.82
60319;BME280;46163;52.306;5.634;2023-02-04T03:42:54;103237.06;;;15.64;55.04
60319;BME280;46163;52.306;5.634;2023-02-04T03:45:19;103236.56;;;15.61;54.89
60319;BME280;46163;52.306;5.634;2023-02-04T03:47:45;103249.09;;;15.60;54.93
60319;BME280;46163;52.306;5.634;2023-02-04T03:50:10;103245.78;;;15.58;54.85
60319;BME280;46163;52.306;5.634;2023-02-04T03:52:38;103236.06;;;15.57;54.79
60319;BME280;46163;52.306;5.634;2023-02-04T03:55:04;103246.97;;;15.55;54.86
60319;BME280;46163;52.306;5.634;2023-02-04T03:57:30;103244.44;;;15.54;54.85
60319;BME280;46163;52.306;5.634;2023-02-04T03:59:55;103248.13;;;15.53;54.81
60319;BME280;46163;52.306;5.634;2023-02-04T04:02:21;103256.38;;;15.51;54.92
60319;BME280;46163;52.306;5.634;2023-02-04T04:04:46;103259.41;;;15.48;54.71
60319;BME280;46163;52.306;5.634;2023-02-04T04:07:14;103254.88;;;15.49;54.94
60319;BME280;46163;52.306;5.634;2023-02-04T04:09:39;103270.16;;;15.48;54.50
60319;BME280;46163;52.306;5.634;2023-02-04T04:12:05;103268.63;;;15.46;54.82
60319;BME280;46163;52.306;5.634;2023-02-04T04:14:31;103258.91;;;15.45;54.86
60319;BME280;46163;52.306;5.634;2023-02-04T04:16:57;103255.38;;;15.44;54.89
60319;BME280;46163;52.306;5.634;2023-02-04T04:19:22;103252.88;;;15.43;54.69
60319;BME280;46163;52.306;5.634;2023-02-04T04:21:49;103258.25;;;15.43;54.95
60319;BME280;46163;52.306;5.634;2023-02-04T04:24:19;103254.72;;;15.42;54.76
60319;BME280;46163;52.306;5.634;2023-02-04T04:26:44;103257.41;;;15.42;54.84
60319;BME280;46163;52.306;5.634;2023-02-04T04:29:12;103260.94;;;15.43;54.90
60319;BME280;46163;52.306;5.634;2023-02-04T04:31:38;103255.38;;;15.44;54.80
60319;BME280;46163;52.306;5.634;2023-02-04T04:34:03;103268.63;;;15.46;54.85
60319;BME280;46163;52.306;5.634;2023-02-04T04:36:29;103268.47;;;15.47;54.69
60319;BME280;46163;52.306;5.634;2023-02-04T04:38:55;103261.72;;;15.51;54.66
60319;BME280;46163;52.306;5.634;2023-02-04T04:41:20;103263.91;;;15.56;54.66
60319;BME280;46163;52.306;5.634;2023-02-04T04:43:46;103274.97;;;15.61;54.46
60319;BME280;46163;52.306;5.634;2023-02-04T04:46:11;103271.59;;;15.67;54.44
60319;BME280;46163;52.306;5.634;2023-02-04T04:48:37;103270.53;;;15.76;54.04
60319;BME280;46163;52.306;5.634;2023-02-04T04:51:02;103277.72;;;15.84;54.01
60319;BME280;46163;52.306;5.634;2023-02-04T04:53:28;103278.84;;;15.90;53.79
60319;BME280;46163;52.306;5.634;2023-02-04T04:55:53;103275.13;;;15.99;53.70
60319;BME280;46163;52.306;5.634;2023-02-04T04:58:19;103280.25;;;16.08;53.42
60319;BME280;46163;52.306;5.634;2023-02-04T05:00:45;103280.88;;;16.19;53.34
60319;BME280;46163;52.306;5.634;2023-02-04T05:03:10;103281.00;;;16.25;53.04
60319;BME280;46163;52.306;5.634;2023-02-04T05:05:36;103284.28;;;16.35;52.92
60319;BME280;46163;52.306;5.634;2023-02-04T05:08:06;103286.22;;;16.42;52.65
60319;BME280;46163;52.306;5.634;2023-02-04T05:10:35;103281.47;;;16.52;52.58
60319;BME280;46163;52.306;5.634;2023-02-04T05:13:00;103284.22;;;16.58;52.21
60319;BME280;46163;52.306;5.634;2023-02-04T05:15:26;103285.38;;;16.64;52.32
60319;BME280;46163;52.306;5.634;2023-02-04T05:17:51;103286.16;;;16.73;52.04
60319;BME280;46163;52.306;5.634;2023-02-04T05:20:17;103295.38;;;16.78;51.79
60319;BME280;46163;52.306;5.634;2023-02-04T05:22:43;103291.28;;;16.82;51.63
60319;BME280;46163;52.306;5.634;2023-02-04T05:25:08;103284.53;;;16.86;51.46
60319;BME280;46163;52.306;5.634;2023-02-04T05:27:35;103291.03;;;16.92;51.57
60319;BME280;46163;52.306;5.634;2023-02-04T05:30:00;103292.16;;;16.98;51.41
60319;BME280;46163;52.306;5.634;2023-02-04T05:32:25;103293.63;;;17.00;51.18
60319;BME280;46163;52.306;5.634;2023-02-04T05:34:51;103297.44;;;17.06;51.36
60319;BME280;46163;52.306;5.634;2023-02-04T05:37:17;103292.72;;;17.08;51.16
60319;BME280;46163;52.306;5.634;2023-02-04T05:39:45;103297.72;;;17.11;51.10
60319;BME280;46163;52.306;5.634;2023-02-04T05:42:12;103300.06;;;17.14;51.02
60319;BME280;46163;52.306;5.634;2023-02-04T05:44:37;103293.47;;;17.16;50.79
60319;BME280;46163;52.306;5.634;2023-02-04T05:47:02;103300.50;;;17.17;50.94
60319;BME280;46163;52.306;5.634;2023-02-04T05:49:30;103297.47;;;17.20;50.89
60319;BME280;46163;52.306;5.634;2023-02-04T05:51:56;103291.91;;;17.22;50.73
60319;BME280;46163;52.306;5.634;2023-02-04T05:54:22;103290.50;;;17.26;50.99
60319;BME280;46163;52.306;5.634;2023-02-04T05:56:48;103297.19;;;17.30;50.70
60319;BME280;46163;52.306;5.634;2023-02-04T05:59:16;103299.50;;;17.33;50.54
60319;BME280;46163;52.306;5.634;2023-02-04T06:01:45;103306.38;;;17.36;50.72
60319;BME280;46163;52.306;5.634;2023-02-04T06:04:10;103306.84;;;17.39;50.58
60319;BME280;46163;52.306;5.634;2023-02-04T06:06:36;103311.00;;;17.42;50.50
60319;BME280;46163;52.306;5.634;2023-02-04T06:09:02;103306.06;;;17.45;50.48
60319;BME280;46163;52.306;5.634;2023-02-04T06:11:27;103305.72;;;17.48;50.44
60319;BME280;46163;52.306;5.634;2023-02-04T06:13:53;103308.03;;;17.51;50.54
60319;BME280;46163;52.306;5.634;2023-02-04T06:16:19;103312.03;;;17.56;50.13
60319;BME280;46163;52.306;5.634;2023-02-04T06:18:44;103323.25;;;17.59;50.30
60319;BME280;46163;52.306;5.634;2023-02-04T06:21:12;103322.72;;;17.64;50.18
60319;BME280;46163;52.306;5.634;2023-02-04T06:23:38;103326.69;;;17.68;50.06
60319;BME280;46163;52.306;5.634;2023-02-04T06:26:03;103333.75;;;17.69;49.63
60319;BME280;46163;52.306;5.634;2023-02-04T06:28:29;103335.09;;;17.73;49.96
60319;BME280;46163;52.306;5.634;2023-02-04T06:30:55;103336.75;;;17.74;49.64
60319;BME280;46163;52.306;5.634;2023-02-04T06:33:20;103338.88;;;17.78;49.96
60319;BME280;46163;52.306;5.634;2023-02-04T06:35:48;103347.59;;;17.80;49.94
60319;BME280;46163;52.306;5.634;2023-02-04T06:38:16;103355.31;;;17.84;49.71
60319;BME280;46163;52.306;5.634;2023-02-04T06:40:44;103354.28;;;17.85;49.67
60319;BME280;46163;52.306;5.634;2023-02-04T06:43:14;103352.44;;;17.85;49.51
60319;BME280;46163;52.306;5.634;2023-02-04T06:45:40;103353.06;;;17.87;49.61
60319;BME280;46163;52.306;5.634;2023-02-04T06:48:06;103352.03;;;17.88;49.57
60319;BME280;46163;52.306;5.634;2023-02-04T06:50:33;103352.88;;;17.89;49.51
60319;BME280;46163;52.306;5.634;2023-02-04T06:52:59;103363.66;;;17.89;49.47
60319;BME280;46163;52.306;5.634;2023-02-04T06:55:24;103354.66;;;17.82;49.33
60319;BME280;46163;52.306;5.634;2023-02-04T06:57:50;103382.97;;;17.92;49.39
60319;BME280;46163;52.306;5.634;2023-02-04T07:00:15;103377.94;;;17.89;49.64
60319;BME280;46163;52.306;5.634;2023-02-04T07:02:41;103392.72;;;17.93;49.62
60319;BME280;46163;52.306;5.634;2023-02-04T07:05:07;103386.31;;;17.94;49.52
60319;BME280;46163;52.306;5.634;2023-02-04T07:07:33;103387.16;;;17.95;49.64
60319;BME280;46163;52.306;5.634;2023-02-04T07:09:59;103391.06;;;17.92;49.40
60319;BME280;46163;52.306;5.634;2023-02-04T07:12:26;103368.03;;;17.75;49.62
60319;BME280;46163;52.306;5.634;2023-02-04T07:14:52;103397.09;;;17.94;49.97
60319;BME280;46163;52.306;5.634;2023-02-04T07:17:17;103397.72;;;17.96;49.67
60319;BME280;46163;52.306;5.634;2023-02-04T07:19:43;103398.75;;;17.95;49.77
60319;BME280;46163;52.306;5.634;2023-02-04T07:22:08;103387.97;;;17.95;49.73
60319;BME280;46163;52.306;5.634;2023-02-04T07:24:35;103391.31;;;17.97;50.09
60319;BME280;46163;52.306;5.634;2023-02-04T07:27:05;103397.53;;;17.98;50.04
60319;BME280;46163;52.306;5.634;2023-02-04T07:29:30;103411.19;;;17.96;50.21
60319;BME280;46163;52.306;5.634;2023-02-04T07:31:55;103413.72;;;17.98;50.01
60319;BME280;46163;52.306;5.634;2023-02-04T07:34:21;103414.94;;;17.95;50.05
60319;BME280;46163;52.306;5.634;2023-02-04T07:36:47;103423.50;;;17.99;50.07
60319;BME280;46163;52.306;5.634;2023-02-04T07:39:12;103430.75;;;17.98;50.04
60319;BME280;46163;52.306;5.634;2023-02-04T07:41:38;103436.28;;;17.97;50.31
60319;BME280;46163;52.306;5.634;2023-02-04T07:44:03;103441.50;;;17.98;50.00
60319;BME280;46163;52.306;5.634;2023-02-04T07:46:29;103437.97;;;17.98;50.43
60319;BME280;46163;52.306;5.634;2023-02-04T07:48:54;103444.56;;;17.95;50.27
60319;BME280;46163;52.306;5.634;2023-02-04T07:51:20;103450.25;;;18.00;50.40
60319;BME280;46163;52.306;5.634;2023-02-04T07:53:47;103452.94;;;18.00;50.47
60319;BME280;46163;52.306;5.634;2023-02-04T07:56:13;103452.94;;;18.00;50.35
60319;BME280;46163;52.306;5.634;2023-02-04T07:58:39;103462.03;;;17.99;50.25
60319;BME280;46163;52.306;5.634;2023-02-04T08:01:07;103440.28;;;17.86;50.57
60319;BME280;46163;52.306;5.634;2023-02-04T08:03:33;103462.03;;;17.99;50.41
60319;BME280;46163;52.306;5.634;2023-02-04T08:05:58;103468.91;;;18.02;50.25
60319;BME280;46163;52.306;5.634;2023-02-04T08:08:24;103466.41;;;18.00;50.67
60319;BME280;46163;52.306;5.634;2023-02-04T08:10:49;103462.69;;;18.01;50.25
60319;BME280;46163;52.306;5.634;2023-02-04T08:13:15;103468.06;;;18.01;50.34
60319;BME280;46163;52.306;5.634;2023-02-04T08:15:40;103470.13;;;17.99;50.19
60319;BME280;46163;52.306;5.634;2023-02-04T08:18:07;103471.78;;;18.00;50.21
60319;BME280;46163;52.306;5.634;2023-02-04T08:20:33;103468.91;;;18.02;50.24
60319;BME280;46163;52.306;5.634;2023-02-04T08:22:59;103471.78;;;18.00;50.46
60319;BME280;46163;52.306;5.634;2023-02-04T08:25:24;103469.44;;;17.97;50.09
60319;BME280;46163;52.306;5.634;2023-02-04T08:27:50;103477.53;;;17.97;50.40
60319;BME280;46163;52.306;5.634;2023-02-04T08:30:16;103475.41;;;17.93;50.54
60319;BME280;46163;52.306;5.634;2023-02-04T08:32:41;103477.91;;;17.94;50.71
60319;BME280;46163;52.306;5.634;2023-02-04T08:35:09;103481.00;;;17.91;50.58
60319;BME280;46163;52.306;5.634;2023-02-04T08:37:35;103476.97;;;17.87;51.02
60319;BME280;46163;52.306;5.634;2023-02-04T08:40:01;103483.22;;;17.88;51.03
60319;BME280;46163;52.306;5.634;2023-02-04T08:42:27;103490.94;;;17.91;51.19
60319;BME280;46163;52.306;5.634;2023-02-04T08:44:53;103498.19;;;17.90;51.20
60319;BME280;46163;52.306;5.634;2023-02-04T08:47:21;103496.31;;;17.91;51.23
60319;BME280;46163;52.306;5.634;2023-02-04T08:49:47;103497.69;;;17.87;51.17
60319;BME280;46163;52.306;5.634;2023-02-04T08:52:12;103500.88;;;17.90;51.47
60319;BME280;46163;52.306;5.634;2023-02-04T08:54:38;103503.38;;;17.92;51.30
60319;BME280;46163;52.306;5.634;2023-02-04T08:57:05;103500.50;;;17.93;51.47
60319;BME280;46163;52.306;5.634;2023-02-04T08:59:31;103503.19;;;17.93;51.47
60319;BME280;46163;52.306;5.634;2023-02-04T09:01:56;103516.28;;;17.96;51.45
60319;BME280;46163;52.306;5.634;2023-02-04T09:04:22;103506.19;;;17.98;51.33
60319;BME280;46163;52.306;5.634;2023-02-04T09:06:49;103514.06;;;18.00;51.42
60319;BME280;46163;52.306;5.634;2023-02-04T09:09:16;103510.34;;;18.01;51.31
60319;BME280;46163;52.306;5.634;2023-02-04T09:11:42;103510.16;;;18.02;51.37
60319;BME280;46163;52.306;5.634;2023-02-04T09:14:08;103503.75;;;18.03;51.39
60319;BME280;46163;52.306;5.634;2023-02-04T09:16:34;103505.41;;;18.04;51.28
60319;BME280;46163;52.306;5.634;2023-02-04T09:19:00;103510.81;;;18.04;51.50
60319;BME280;46163;52.306;5.634;2023-02-04T09:21:29;103513.31;;;18.06;51.29
60319;BME280;46163;52.306;5.634;2023-02-04T09:23:54;103510.81;;;18.04;51.38
60319;BME280;46163;52.306;5.634;2023-02-04T09:26:20;103517.88;;;18.05;51.17
60319;BME280;46163;52.306;5.634;2023-02-04T09:28:45;103512.66;;;18.04;51.30
60319;BME280;46163;52.306;5.634;2023-02-04T09:31:13;103504.59;;;18.04;51.28
60319;BME280;46163;52.306;5.634;2023-02-04T09:33:40;103510.63;;;18.06;51.16
60319;BME280;46163;52.306;5.634;2023-02-04T09:36:06;103513.16;;;18.07;51.29
60319;BME280;46163;52.306;5.634;2023-02-04T09:38:34;103511.44;;;18.06;51.27
60319;BME280;46163;52.306;5.634;2023-02-04T09:41:02;103520.03;;;18.10;51.27
60319;BME280;46163;52.306;5.634;2023-02-04T09:43:30;103511.28;;;18.08;50.84
60319;BME280;46163;52.306;5.634;2023-02-04T09:45:59;103517.13;;;18.12;51.07
60319;BME280;46163;52.306;5.634;2023-02-04T09:48:25;103517.31;;;18.10;51.61
60319;BME280;46163;52.306;5.634;2023-02-04T09:50:51;103526.25;;;18.11;51.33
60319;BME280;46163;52.306;5.634;2023-02-04T09:53:22;103523.34;;;18.12;51.45
60319;BME280;46163;52.306;5.634;2023-02-04T09:55:52;103526.88;;;18.13;51.43
60319;BME280;46163;52.306;5.634;2023-02-04T09:58:21;103530.22;;;18.15;51.07
60319;BME280;46163;52.306;5.634;2023-02-04T10:00:58;103528.38;;;18.15;51.20
60319;BME280;46163;52.306;5.634;2023-02-04T10:03:24;103541.84;;;18.15;51.39
60319;BME280;46163;52.306;5.634;2023-02-04T10:05:50;103539.53;;;18.12;51.41
60319;BME280;46163;52.306;5.634;2023-02-04T10:08:17;103537.22;;;18.09;51.47
60319;BME280;46163;52.306;5.634;2023-02-04T10:10:45;103534.88;;;18.06;51.50
60319;BME280;46163;52.306;5.634;2023-02-04T10:13:16;103534.03;;;18.05;51.38
60319;BME280;46163;52.306;5.634;2023-02-04T10:15:43;103540.25;;;18.06;51.47
60319;BME280;46163;52.306;5.634;2023-02-04T10:18:13;103549.19;;;18.06;51.49
60319;BME280;46163;52.306;5.634;2023-02-04T10:20:42;103550.69;;;18.09;51.57
60319;BME280;46163;52.306;5.634;2023-02-04T10:23:09;103541.09;;;18.06;51.35
60319;BME280;46163;52.306;5.634;2023-02-04T10:25:35;103551.34;;;18.11;51.23
60319;BME280;46163;52.306;5.634;2023-02-04T10:28:01;103554.69;;;18.13;51.25
60319;BME280;46163;52.306;5.634;2023-02-04T10:30:29;103549.09;;;18.15;51.35
60319;BME280;46163;52.306;5.634;2023-02-04T10:32:58;103549.94;;;18.15;51.24
60319;BME280;46163;52.306;5.634;2023-02-04T10:35:25;103534.03;;;18.05;51.20
60319;BME280;46163;52.306;5.634;2023-02-04T10:38:05;103552.91;;;18.20;51.18
60319;BME280;46163;52.306;5.634;2023-02-04T10:40:34;103550.50;;;18.25;51.01
60319;BME280;46163;52.306;5.634;2023-02-04T10:43:24;103553.84;;;18.27;51.05
60319;BME280;46163;52.306;5.634;2023-02-04T10:45:58;103556.56;;;18.27;50.88
60319;BME280;46163;52.306;5.634;2023-02-04T10:48:25;103552.63;;;18.30;51.06
60319;BME280;46163;52.306;5.634;2023-02-04T10:50:52;103549.94;;;18.30;51.19
60319;BME280;46163;52.306;5.634;2023-02-04T10:53:19;103558.03;;;18.30;51.04
60319;BME280;46163;52.306;5.634;2023-02-04T10:56:16;103557.00;;;18.31;51.15
60319;BME280;46163;52.306;5.634;2023-02-04T10:58:43;103553.28;;;18.32;51.21
60319;BME280;46163;52.306;5.634;2023-02-04T11:01:14;103552.25;;;18.33;51.04
60319;BME280;46163;52.306;5.634;2023-02-04T11:03:42;103556.81;;;18.32;51.30
60319;BME280;46163;52.306;5.634;2023-02-04T11:06:14;103554.31;;;18.31;51.33
60319;BME280;46163;52.306;5.634;2023-02-04T11:08:42;103542.50;;;18.17;51.41
60319;BME280;46163;52.306;5.634;2023-02-04T11:11:29;103565.09;;;18.31;51.21
60319;BME280;46163;52.306;5.634;2023-02-04T11:16:31;103567.13;;;18.29;51.52
60319;BME280;46163;52.306;5.634;2023-02-04T11:19:02;103563.81;;;18.27;51.61
60319;BME280;46163;52.306;5.634;2023-02-04T11:21:44;103570.22;;;18.26;51.98
60319;BME280;46163;52.306;5.634;2023-02-04T11:29:23;103551.34;;;18.26;52.11
60319;BME280;46163;52.306;5.634;2023-02-04T11:42:05;103556.44;;;18.21;51.66
60319;BME280;46163;52.306;5.634;2023-02-04T11:44:38;103553.94;;;18.19;51.48
60319;BME280;46163;52.306;5.634;2023-02-04T11:47:06;103552.47;;;18.17;51.63
60319;BME280;46163;52.306;5.634;2023-02-04T11:49:35;103552.81;;;18.14;51.58
60319;BME280;46163;52.306;5.634;2023-02-04T11:52:12;103560.91;;;18.14;51.16
60319;BME280;46163;52.306;5.634;2023-02-04T11:54:38;103558.19;;;18.14;51.11
60319;BME280;46163;52.306;5.634;2023-02-04T11:57:04;103554.22;;;18.10;51.12
60319;BME280;46163;52.306;5.634;2023-02-04T11:59:30;103551.03;;;18.06;50.93
60319;BME280;46163;52.306;5.634;2023-02-04T12:02:25;103547.50;;;18.05;51.05
60319;BME280;46163;52.306;5.634;2023-02-04T12:04:55;103548.53;;;18.04;50.82
60319;BME280;46163;52.306;5.634;2023-02-04T12:07:28;103551.41;;;18.03;50.70
60319;BME280;46163;52.306;5.634;2023-02-04T12:09:56;103548.91;;;18.01;51.18
60319;BME280;46163;52.306;5.634;2023-02-04T12:12:27;103542.19;;;17.97;50.92
60319;BME280;46163;52.306;5.634;2023-02-04T12:15:42;103550.28;;;17.97;50.80
60319;BME280;46163;52.306;5.634;2023-02-04T12:17:43;103557.72;;;17.95;51.30
60319;BME280;46163;52.306;5.634;2023-02-04T12:20:12;103563.31;;;17.94;51.60
60319;BME280;46163;52.306;5.634;2023-02-04T12:22:37;103559.31;;;17.90;51.78
60319;BME280;46163;52.306;5.634;2023-02-04T12:25:03;103558.63;;;17.88;51.65
60319;BME280;46163;52.306;5.634;2023-02-04T12:27:28;103557.81;;;17.87;51.83
60319;BME280;46163;52.306;5.634;2023-02-04T12:29:54;103560.69;;;17.86;51.88
60319;BME280;46163;52.306;5.634;2023-02-04T12:32:19;103556.31;;;17.85;52.18
60319;BME280;46163;52.306;5.634;2023-02-04T12:34:45;103558.19;;;17.84;52.33
60319;BME280;46163;52.306;5.634;2023-02-04T12:37:11;103563.56;;;17.84;52.11
60319;BME280;46163;52.306;5.634;2023-02-04T12:39:37;103559.00;;;17.85;52.21
60319;BME280;46163;52.306;5.634;2023-02-04T12:42:03;103556.13;;;17.86;52.19
60319;BME280;46163;52.306;5.634;2023-02-04T12:44:29;103557.81;;;17.87;52.29
60319;BME280;46163;52.306;5.634;2023-02-04T12:46:55;103550.38;;;17.89;52.03
60319;BME280;46163;52.306;5.634;2023-02-04T12:49:21;103558.28;;;17.91;51.95
60319;BME280;46163;52.306;5.634;2023-02-04T12:51:49;103553.75;;;17.91;52.28
60319;BME280;46163;52.306;5.634;2023-02-04T12:54:15;103558.75;;;17.94;52.10
60319;BME280;46163;52.306;5.634;2023-02-04T12:56:41;103560.22;;;17.97;52.10
60319;BME280;46163;52.306;5.634;2023-02-04T12:59:06;103560.72;;;18.00;52.08
60319;BME280;46163;52.306;5.634;2023-02-04T13:01:32;103549.56;;;18.03;52.11
60319;BME280;46163;52.306;5.634;2023-02-04T13:03:57;103542.19;;;17.97;52.04
60319;BME280;46163;52.306;5.634;2023-02-04T13:06:23;103545.50;;;18.07;51.92
60319;BME280;46163;52.306;5.634;2023-02-04T13:08:50;103548.00;;;18.09;52.06
60319;BME280;46163;52.306;5.634;2023-02-04T13:11:15;103547.63;;;18.12;52.02